sensor_id;sensor_type;location;lat;lon;timestamp;pressure;altitude;pressure_sealevel;temperature;humidity
11049;BME280;5577;42.706;23.160;2023-04-03T00:01:56;93528.69;;;6.14;100.00
11049;BME280;5577;42.706;23.160;2023-04-03T00:04:39;93522.06;;;6.32;100.00
11049;BME280;5577;42.706;23.160;2023-04-03T00:07:24;93517.22;;;6.46;100.00
11049;BME280;5577;42.706;23.160;2023-04-03T00:10:09;93515.28;;;6.43;100.00
11049;BME280;5577;42.706;23.160;2023-04-03T00:12:53;93516.03;;;6.44;100.00
11049;BME280;5577;42.706;23.160;2023-04-03T00:15:38;93512.66;;;6.31;100.00
11049;BME280;5577;42.706;23.160;2023-04-03T00:18:22;93507.53;;;6.23;100.00
11049;BME280;5577;42.706;23.160;2023-04-03T00:21:07;93508.34;;;6.11;100.00
11049;BME280;5577;42.706;23.160;2023-04-03T00:23:52;93510.94;;;6.23;100.00
11049;BME280;5577;42.706;23.160;2023-04-03T00:26:35;93503.31;;;6.46;100.00
11049;BME280;5577;42.706;23.160;2023-04-03T00:29:20;93492.31;;;6.28;100.00
11049;BME280;5577;42.706;23.160;2023-04-03T00:32:04;93513.47;;;6.20;100.00
11049;BME280;5577;42.706;23.160;2023-04-03T00:34:48;93519.75;;;6.03;100.00
11049;BME280;5577;42.706;23.160;2023-04-03T00:37:32;93512.63;;;6.04;100.00
11049;BME280;5577;42.706;23.160;2023-04-03T00:40:16;93514.28;;;6.08;100.00
11049;BME280;5577;42.706;23.160;2023-04-03T00:43:01;93505.88;;;6.03;100.00
11049;BME280;5577;42.706;23.160;2023-04-03T00:45:51;93418.16;;;5.55;100.00
11049;BME280;5577;42.706;23.160;2023-04-03T00:48:41;93508.00;;;6.13;100.00
11049;BME280;5577;42.706;23.160;2023-04-03T00:51:26;93456.53;;;5.60;100.00
11049;BME280;5577;42.706;23.160;2023-04-03T00:54:11;93503.47;;;5.85;100.00
11049;BME280;5577;42.706;23.160;2023-04-03T00:56:56;93511.25;;;5.82;100.00
11049;BME280;5577;42.706;23.160;2023-04-03T00:59:48;93516.91;;;5.72;100.00
11049;BME280;5577;42.706;23.160;2023-04-03T01:02:35;93512.75;;;5.95;100.00
11049;BME280;5577;42.706;23.160;2023-04-03T01:05:20;93517.78;;;6.12;100.00
11049;BME280;5577;42.706;23.160;2023-04-03T01:08:05;93519.31;;;6.41;100.00
11049;BME280;5577;42.706;23.160;2023-04-03T01:10:49;93516.88;;;6.48;100.00
11049;BME280;5577;42.706;23.160;2023-04-03T01:13:33;93512.13;;;6.53;100.00
11049;BME280;5577;42.706;23.160;2023-04-03T01:16:18;93502.41;;;6.54;100.00
11049;BME280;5577;42.706;23.160;2023-04-03T01:19:03;93505.28;;;6.49;100.00
11049;BME280;5577;42.706;23.160;2023-04-03T01:22:15;93509.50;;;6.38;100.00
11049;BME280;5577;42.706;23.160;2023-04-03T01:25:03;93508.72;;;6.37;100.00
11049;BME280;5577;42.706;23.160;2023-04-03T01:27:48;93511.72;;;6.24;100.00
11049;BME280;5577;42.706;23.160;2023-04-03T01:30:35;93514.50;;;6.03;100.00
11049;BME280;5577;42.706;23.160;2023-04-03T01:33:20;93507.94;;;5.97;100.00
11049;BME280;5577;42.706;23.160;2023-04-03T01:36:04;93517.22;;;6.07;100.00
11049;BME280;5577;42.706;23.160;2023-04-03T01:38:49;93512.00;;;6.34;100.00
11049;BME280;5577;42.706;23.160;2023-04-03T01:41:33;93503.97;;;6.15;100.00
11049;BME280;5577;42.706;23.160;2023-04-03T01:44:17;93516.97;;;6.24;100.00
11049;BME280;5577;42.706;23.160;2023-04-03T01:47:02;93522.25;;;6.12;100.00
11049;BME280;5577;42.706;23.160;2023-04-03T01:49:48;93511.44;;;6.01;100.00
11049;BME280;5577;42.706;23.160;2023-04-03T01:52:32;93509.47;;;5.98;100.00
11049;BME280;5577;42.706;23.160;2023-04-03T01:55:16;93510.97;;;6.11;100.00
11049;BME280;5577;42.706;23.160;2023-04-03T01:58:00;93515.13;;;6.12;100.00
11049;BME280;5577;42.706;23.160;2023-04-03T02:00:44;93476.34;;;5.81;100.00
11049;BME280;5577;42.706;23.160;2023-04-03T02:03:28;93505.41;;;6.01;100.00
11049;BME280;5577;42.706;23.160;2023-04-03T02:06:12;93497.78;;;5.83;100.00
11049;BME280;5577;42.706;23.160;2023-04-03T02:08:56;93508.63;;;5.94;100.00
11049;BME280;5577;42.706;23.160;2023-04-03T02:11:40;93493.59;;;6.07;100.00
11049;BME280;5577;42.706;23.160;2023-04-03T02:14:25;93503.97;;;6.15;100.00
11049;BME280;5577;42.706;23.160;2023-04-03T02:17:11;93496.75;;;6.12;100.00
11049;BME280;5577;42.706;23.160;2023-04-03T02:19:54;93485.13;;;6.13;100.00
11049;BME280;5577;42.706;23.160;2023-04-03T02:22:38;93496.41;;;6.14;100.00
11049;BME280;5577;42.706;23.160;2023-04-03T02:25:23;93495.22;;;5.99;100.00
11049;BME280;5577;42.706;23.160;2023-04-03T02:28:07;93490.09;;;5.90;100.00
11049;BME280;5577;42.706;23.160;2023-04-03T02:30:51;93492.41;;;5.92;100.00
11049;BME280;5577;42.706;23.160;2023-04-03T02:33:35;93493.63;;;5.82;100.00
11049;BME280;5577;42.706;23.160;2023-04-03T02:36:20;93479.06;;;5.73;100.00
11049;BME280;5577;42.706;23.160;2023-04-03T02:39:04;93485.44;;;5.84;100.00
11049;BME280;5577;42.706;23.160;2023-04-03T02:41:48;93473.88;;;6.01;100.00
11049;BME280;5577;42.706;23.160;2023-04-03T02:44:33;93489.41;;;6.06;100.00
11049;BME280;5577;42.706;23.160;2023-04-03T02:47:17;93485.38;;;5.96;100.00
11049;BME280;5577;42.706;23.160;2023-04-03T02:50:01;93467.69;;;5.81;100.00
11049;BME280;5577;42.706;23.160;2023-04-03T02:52:45;93482.03;;;5.83;100.00
11049;BME280;5577;42.706;23.160;2023-04-03T02:55:29;93476.66;;;5.80;100.00
11049;BME280;5577;42.706;23.160;2023-04-03T02:58:13;93470.75;;;5.71;100.00
11049;BME280;5577;42.706;23.160;2023-04-03T03:00:57;93471.41;;;5.68;100.00
11049;BME280;5577;42.706;23.160;2023-04-03T03:03:42;93473.94;;;5.64;100.00
11049;BME280;5577;42.706;23.160;2023-04-03T03:06:25;93463.09;;;5.54;100.00
11049;BME280;5577;42.706;23.160;2023-04-03T03:09:10;93474.91;;;5.48;100.00
11049;BME280;5577;42.706;23.160;2023-04-03T03:11:55;93469.56;;;5.44;100.00
11049;BME280;5577;42.706;23.160;2023-04-03T03:14:39;93470.34;;;5.45;100.00
11049;BME280;5577;42.706;23.160;2023-04-03T03:17:23;93463.56;;;5.56;100.00
11049;BME280;5577;42.706;23.160;2023-04-03T03:20:08;93461.03;;;5.59;100.00
11049;BME280;5577;42.706;23.160;2023-04-03T03:22:52;93460.16;;;5.55;100.00
11049;BME280;5577;42.706;23.160;2023-04-03T03:25:40;93463.88;;;5.42;100.00
11049;BME280;5577;42.706;23.160;2023-04-03T03:28:24;93459.63;;;5.38;100.00
11049;BME280;5577;42.706;23.160;2023-04-03T03:31:09;93468.81;;;5.32;100.00
11049;BME280;5577;42.706;23.160;2023-04-03T03:33:53;93314.38;;;4.22;100.00
11049;BME280;5577;42.706;23.160;2023-04-03T03:36:37;93470.25;;;5.29;100.00
11049;BME280;5577;42.706;23.160;2023-04-03T03:39:21;93472.09;;;5.29;100.00
11049;BME280;5577;42.706;23.160;2023-04-03T03:42:05;93474.03;;;5.20;100.00
11049;BME280;5577;42.706;23.160;2023-04-03T03:44:49;93466.97;;;5.08;100.00
11049;BME280;5577;42.706;23.160;2023-04-03T03:47:33;93472.94;;;5.09;100.00
11049;BME280;5577;42.706;23.160;2023-04-03T03:50:17;93473.06;;;5.12;100.00
11049;BME280;5577;42.706;23.160;2023-04-03T03:53:01;93473.28;;;5.07;100.00
11049;BME280;5577;42.706;23.160;2023-04-03T03:55:45;93471.84;;;4.98;100.00
11049;BME280;5577;42.706;23.160;2023-04-03T03:58:29;93479.63;;;4.94;100.00
11049;BME280;5577;42.706;23.160;2023-04-03T04:01:13;93425.00;;;4.40;100.00
11049;BME280;5577;42.706;23.160;2023-04-03T04:03:57;93472.13;;;4.72;100.00
11049;BME280;5577;42.706;23.160;2023-04-03T04:06:41;93477.72;;;4.71;100.00
11049;BME280;5577;42.706;23.160;2023-04-03T04:09:24;93475.75;;;4.68;100.00
11049;BME280;5577;42.706;23.160;2023-04-03T04:12:08;93478.00;;;4.57;100.00
11049;BME280;5577;42.706;23.160;2023-04-03T04:14:53;93483.69;;;4.59;100.00
11049;BME280;5577;42.706;23.160;2023-04-03T04:17:37;93484.00;;;4.58;100.00
11049;BME280;5577;42.706;23.160;2023-04-03T04:20:21;93490.00;;;4.58;100.00
11049;BME280;5577;42.706;23.160;2023-04-03T04:23:05;93501.00;;;4.40;100.00
11049;BME280;5577;42.706;23.160;2023-04-03T04:25:49;93471.94;;;4.12;100.00
11049;BME280;5577;42.706;23.160;2023-04-03T04:28:34;93502.19;;;4.42;100.00
11049;BME280;5577;42.706;23.160;2023-04-03T04:31:18;93497.06;;;4.46;100.00
11049;BME280;5577;42.706;23.160;2023-04-03T04:34:02;93499.81;;;4.49;100.00
11049;BME280;5577;42.706;23.160;2023-04-03T04:36:46;93503.53;;;4.48;100.00
11049;BME280;5577;42.706;23.160;2023-04-03T04:39:30;93511.56;;;4.64;100.00
11049;BME280;5577;42.706;23.160;2023-04-03T04:42:14;93467.50;;;4.25;100.00
11049;BME280;5577;42.706;23.160;2023-04-03T04:44:58;93524.28;;;4.53;100.00
11049;BME280;5577;42.706;23.160;2023-04-03T04:47:42;93518.66;;;4.63;100.00
11049;BME280;5577;42.706;23.160;2023-04-03T04:50:26;93518.00;;;4.66;100.00
11049;BME280;5577;42.706;23.160;2023-04-03T04:53:10;93529.69;;;4.69;100.00
11049;BME280;5577;42.706;23.160;2023-04-03T04:55:55;93531.69;;;4.84;100.00
11049;BME280;5577;42.706;23.160;2023-04-03T04:58:39;93534.09;;;4.77;100.00
11049;BME280;5577;42.706;23.160;2023-04-03T05:01:24;93513.19;;;4.68;100.00
11049;BME280;5577;42.706;23.160;2023-04-03T05:04:08;93538.28;;;4.90;100.00
11049;BME280;5577;42.706;23.160;2023-04-03T05:06:53;93544.22;;;5.11;100.00
11049;BME280;5577;42.706;23.160;2023-04-03T05:09:37;93477.97;;;4.90;100.00
11049;BME280;5577;42.706;23.160;2023-04-03T05:12:21;93530.25;;;5.43;100.00
11049;BME280;5577;42.706;23.160;2023-04-03T05:15:05;93533.78;;;5.35;100.00
11049;BME280;5577;42.706;23.160;2023-04-03T05:17:49;93550.38;;;5.39;100.00
11049;BME280;5577;42.706;23.160;2023-04-03T05:20:34;93543.16;;;5.48;100.00
11049;BME280;5577;42.706;23.160;2023-04-03T05:23:19;93547.66;;;5.59;100.00
11049;BME280;5577;42.706;23.160;2023-04-03T05:26:03;93549.19;;;5.72;100.00
11049;BME280;5577;42.706;23.160;2023-04-03T05:28:48;93547.69;;;5.83;100.00
11049;BME280;5577;42.706;23.160;2023-04-03T05:31:32;93555.00;;;6.02;100.00
11049;BME280;5577;42.706;23.160;2023-04-03T05:34:16;93542.84;;;6.10;100.00
11049;BME280;5577;42.706;23.160;2023-04-03T05:37:00;93534.59;;;6.11;100.00
11049;BME280;5577;42.706;23.160;2023-04-03T05:39:46;93531.88;;;6.08;100.00
11049;BME280;5577;42.706;23.160;2023-04-03T05:42:31;93539.31;;;6.06;100.00
11049;BME280;5577;42.706;23.160;2023-04-03T05:45:15;93537.81;;;6.05;100.00
11049;BME280;5577;42.706;23.160;2023-04-03T05:47:59;93539.31;;;6.18;100.00
11049;BME280;5577;42.706;23.160;2023-04-03T05:50:43;93535.09;;;6.41;100.00
11049;BME280;5577;42.706;23.160;2023-04-03T05:53:29;93517.13;;;6.43;100.00
11049;BME280;5577;42.706;23.160;2023-04-03T05:56:15;93527.03;;;6.61;100.00
11049;BME280;5577;42.706;23.160;2023-04-03T05:58:59;93540.91;;;6.74;100.00
11049;BME280;5577;42.706;23.160;2023-04-03T06:01:43;93510.91;;;6.63;100.00
11049;BME280;5577;42.706;23.160;2023-04-03T06:04:27;93533.72;;;6.86;100.00
11049;BME280;5577;42.706;23.160;2023-04-03T06:07:16;93527.53;;;6.94;100.00
11049;BME280;5577;42.706;23.160;2023-04-03T06:10:03;93522.97;;;7.22;100.00
11049;BME280;5577;42.706;23.160;2023-04-03T06:12:47;93515.69;;;7.31;100.00
11049;BME280;5577;42.706;23.160;2023-04-03T06:15:31;93496.66;;;7.38;100.00
11049;BME280;5577;42.706;23.160;2023-04-03T06:18:15;93501.91;;;7.53;100.00
11049;BME280;5577;42.706;23.160;2023-04-03T06:20:59;93501.09;;;7.84;100.00
11049;BME280;5577;42.706;23.160;2023-04-03T06:23:44;93504.81;;;7.98;100.00
11049;BME280;5577;42.706;23.160;2023-04-03T06:26:29;93499.56;;;8.17;100.00
11049;BME280;5577;42.706;23.160;2023-04-03T06:29:13;93496.88;;;8.14;100.00
11049;BME280;5577;42.706;23.160;2023-04-03T06:31:57;93513.00;;;8.28;100.00
11049;BME280;5577;42.706;23.160;2023-04-03T06:34:42;93509.25;;;8.48;100.00
11049;BME280;5577;42.706;23.160;2023-04-03T06:37:26;93508.72;;;8.58;100.00
11049;BME280;5577;42.706;23.160;2023-04-03T06:40:26;93508.00;;;8.61;100.00
11049;BME280;5577;42.706;23.160;2023-04-03T06:43:10;93514.75;;;8.77;100.00
11049;BME280;5577;42.706;23.160;2023-04-03T06:45:54;93510.84;;;8.91;100.00
11049;BME280;5577;42.706;23.160;2023-04-03T06:48:38;93512.31;;;8.88;100.00
11049;BME280;5577;42.706;23.160;2023-04-03T06:51:27;93497.59;;;8.87;100.00
11049;BME280;5577;42.706;23.160;2023-04-03T06:54:12;93499.94;;;8.92;100.00
11049;BME280;5577;42.706;23.160;2023-04-03T06:56:56;93509.84;;;8.99;100.00
11049;BME280;5577;42.706;23.160;2023-04-03T06:59:40;93498.44;;;9.14;100.00
11049;BME280;5577;42.706;23.160;2023-04-03T07:02:25;93502.16;;;9.32;100.00
11049;BME280;5577;42.706;23.160;2023-04-03T07:05:09;93498.16;;;9.41;100.00
11049;BME280;5577;42.706;23.160;2023-04-03T07:07:53;93511.16;;;9.31;100.00
11049;BME280;5577;42.706;23.160;2023-04-03T07:10:38;93504.72;;;9.28;100.00
11049;BME280;5577;42.706;23.160;2023-04-03T07:13:22;93513.16;;;9.60;100.00
11049;BME280;5577;42.706;23.160;2023-04-03T07:16:06;93507.34;;;9.73;100.00
11049;BME280;5577;42.706;23.160;2023-04-03T07:18:50;93504.69;;;9.73;100.00
11049;BME280;5577;42.706;23.160;2023-04-03T07:21:34;93507.22;;;9.92;100.00
11049;BME280;5577;42.706;23.160;2023-04-03T07:24:19;93511.34;;;9.90;100.00
11049;BME280;5577;42.706;23.160;2023-04-03T07:27:03;93505.22;;;10.08;100.00
11049;BME280;5577;42.706;23.160;2023-04-03T07:29:47;93510.25;;;10.17;100.00
11049;BME280;5577;42.706;23.160;2023-04-03T07:32:34;93493.34;;;10.51;100.00
11049;BME280;5577;42.706;23.160;2023-04-03T07:35:19;93492.59;;;10.87;100.00
11049;BME280;5577;42.706;23.160;2023-04-03T07:38:02;93489.09;;;11.12;100.00
11049;BME280;5577;42.706;23.160;2023-04-03T07:40:48;93488.22;;;11.41;100.00
11049;BME280;5577;42.706;23.160;2023-04-03T07:43:32;93494.78;;;11.58;100.00
11049;BME280;5577;42.706;23.160;2023-04-03T07:46:18;93455.31;;;11.46;100.00
11049;BME280;5577;42.706;23.160;2023-04-03T07:49:02;93460.41;;;11.62;100.00
11049;BME280;5577;42.706;23.160;2023-04-03T07:51:46;93459.63;;;11.61;100.00
11049;BME280;5577;42.706;23.160;2023-04-03T07:54:30;93467.47;;;12.01;100.00
11049;BME280;5577;42.706;23.160;2023-04-03T07:57:14;93458.69;;;11.87;100.00
11049;BME280;5577;42.706;23.160;2023-04-03T07:59:59;93458.78;;;12.01;100.00
11049;BME280;5577;42.706;23.160;2023-04-03T08:02:44;93435.31;;;12.10;100.00
11049;BME280;5577;42.706;23.160;2023-04-03T08:05:28;93420.09;;;11.96;100.00
11049;BME280;5577;42.706;23.160;2023-04-03T08:08:14;93445.31;;;12.37;100.00
11049;BME280;5577;42.706;23.160;2023-04-03T08:11:00;93395.38;;;11.78;100.00
11049;BME280;5577;42.706;23.160;2023-04-03T08:13:45;93446.53;;;11.86;100.00
11049;BME280;5577;42.706;23.160;2023-04-03T08:16:30;93444.13;;;11.67;100.00
11049;BME280;5577;42.706;23.160;2023-04-03T08:19:14;93451.59;;;11.57;100.00
11049;BME280;5577;42.706;23.160;2023-04-03T08:22:02;93449.44;;;11.67;100.00
11049;BME280;5577;42.706;23.160;2023-04-03T08:24:47;93441.34;;;11.52;100.00
11049;BME280;5577;42.706;23.160;2023-04-03T08:27:31;93446.47;;;11.75;100.00
11049;BME280;5577;42.706;23.160;2023-04-03T08:30:15;93444.50;;;11.62;100.00
11049;BME280;5577;42.706;23.160;2023-04-03T08:33:02;93440.28;;;11.60;100.00
11049;BME280;5577;42.706;23.160;2023-04-03T08:35:47;93446.28;;;11.50;100.00
11049;BME280;5577;42.706;23.160;2023-04-03T08:38:30;93449.44;;;11.63;100.00
11049;BME280;5577;42.706;23.160;2023-04-03T08:44:38;93440.03;;;11.76;100.00
11049;BME280;5577;42.706;23.160;2023-04-03T08:47:40;93440.03;;;11.73;100.00
11049;BME280;5577;42.706;23.160;2023-04-03T08:50:34;93430.88;;;11.67;100.00
11049;BME280;5577;42.706;23.160;2023-04-03T08:53:26;93431.31;;;11.72;100.00
11049;BME280;5577;42.706;23.160;2023-04-03T08:56:14;93430.56;;;11.75;100.00
11049;BME280;5577;42.706;23.160;2023-04-03T08:59:12;93396.19;;;11.93;100.00
11049;BME280;5577;42.706;23.160;2023-04-03T09:01:59;93414.19;;;12.27;100.00
11049;BME280;5577;42.706;23.160;2023-04-03T09:04:46;93410.81;;;12.37;100.00
11049;BME280;5577;42.706;23.160;2023-04-03T09:07:42;93415.44;;;12.65;96.41
11049;BME280;5577;42.706;23.160;2023-04-03T09:10:29;93415.88;;;12.81;95.47
11049;BME280;5577;42.706;23.160;2023-04-03T09:16:02;93401.47;;;12.82;93.76
11049;BME280;5577;42.706;23.160;2023-04-03T09:19:38;93406.41;;;12.94;95.61
11049;BME280;5577;42.706;23.160;2023-04-03T09:21:57;93401.50;;;12.99;93.19
11049;BME280;5577;42.706;23.160;2023-04-03T09:24:47;93393.94;;;13.12;89.22
11049;BME280;5577;42.706;23.160;2023-04-03T09:27:32;93394.69;;;13.02;91.57
11049;BME280;5577;42.706;23.160;2023-04-03T09:30:19;93379.13;;;13.11;91.29
11049;BME280;5577;42.706;23.160;2023-04-03T09:33:04;93366.63;;;13.18;85.75
11049;BME280;5577;42.706;23.160;2023-04-03T09:35:50;93378.38;;;13.35;87.64
11049;BME280;5577;42.706;23.160;2023-04-03T09:38:34;93374.19;;;13.37;88.93
11049;BME280;5577;42.706;23.160;2023-04-03T09:41:19;93372.28;;;13.34;88.25
11049;BME280;5577;42.706;23.160;2023-04-03T09:44:21;93351.78;;;13.35;81.37
11049;BME280;5577;42.706;23.160;2023-04-03T09:53:07;93360.13;;;13.47;79.28
11049;BME280;5577;42.706;23.160;2023-04-03T09:56:18;93355.22;;;13.14;81.25
11049;BME280;5577;42.706;23.160;2023-04-03T10:02:00;93350.22;;;12.81;90.67
11049;BME280;5577;42.706;23.160;2023-04-03T10:04:46;93347.56;;;12.74;90.27
11049;BME280;5577;42.706;23.160;2023-04-03T10:07:36;93347.22;;;12.97;88.91
11049;BME280;5577;42.706;23.160;2023-04-03T10:10:22;93343.06;;;13.13;87.84
11049;BME280;5577;42.706;23.160;2023-04-03T10:13:20;93331.28;;;12.86;82.21
11049;BME280;5577;42.706;23.160;2023-04-03T10:16:14;93342.66;;;12.94;84.67
11049;BME280;5577;42.706;23.160;2023-04-03T10:31:25;93330.09;;;12.52;95.38
11049;BME280;5577;42.706;23.160;2023-04-03T10:34:25;93327.78;;;12.33;96.59
11049;BME280;5577;42.706;23.160;2023-04-03T10:37:24;93284.13;;;12.20;100.00
11049;BME280;5577;42.706;23.160;2023-04-03T10:40:34;93320.22;;;12.56;100.00
11049;BME280;5577;42.706;23.160;2023-04-03T10:46:16;93313.03;;;12.57;91.81
11049;BME280;5577;42.706;23.160;2023-04-03T10:49:25;93305.41;;;12.52;92.84
11049;BME280;5577;42.706;23.160;2023-04-03T10:52:29;93297.84;;;12.54;92.75
11049;BME280;5577;42.706;23.160;2023-04-03T10:55:36;93306.56;;;12.47;89.59
11049;BME280;5577;42.706;23.160;2023-04-03T10:58:31;93275.09;;;12.39;93.63
11049;BME280;5577;42.706;23.160;2023-04-03T11:01:19;93306.97;;;12.60;88.09
11049;BME280;5577;42.706;23.160;2023-04-03T11:04:06;93224.22;;;12.05;88.61
11049;BME280;5577;42.706;23.160;2023-04-03T11:06:57;93302.38;;;12.53;88.78
11049;BME280;5577;42.706;23.160;2023-04-03T11:09:46;93304.72;;;12.72;87.05
11049;BME280;5577;42.706;23.160;2023-04-03T11:12:49;93301.66;;;12.67;86.98
11049;BME280;5577;42.706;23.160;2023-04-03T11:15:36;93303.97;;;12.75;84.96
11049;BME280;5577;42.706;23.160;2023-04-03T11:18:28;93305.78;;;12.50;84.09
11049;BME280;5577;42.706;23.160;2023-04-03T11:21:21;93297.44;;;12.45;92.60
11049;BME280;5577;42.706;23.160;2023-04-03T11:24:17;93265.16;;;12.08;99.29
11049;BME280;5577;42.706;23.160;2023-04-03T11:27:08;93308.34;;;12.05;100.00
11049;BME280;5577;42.706;23.160;2023-04-03T11:29:58;93296.56;;;11.95;100.00
11049;BME280;5577;42.706;23.160;2023-04-03T11:36:10;93305.16;;;11.68;100.00
11049;BME280;5577;42.706;23.160;2023-04-03T11:39:04;93306.47;;;11.37;100.00
11049;BME280;5577;42.706;23.160;2023-04-03T11:41:53;93296.47;;;11.13;100.00
11049;BME280;5577;42.706;23.160;2023-04-03T11:44:37;93294.09;;;10.94;100.00
11049;BME280;5577;42.706;23.160;2023-04-03T11:47:48;93320.56;;;10.97;100.00
11049;BME280;5577;42.706;23.160;2023-04-03T11:53:32;93319.63;;;10.72;100.00
11049;BME280;5577;42.706;23.160;2023-04-03T11:56:27;93325.22;;;10.64;100.00
11049;BME280;5577;42.706;23.160;2023-04-03T12:01:58;93335.78;;;10.64;100.00
11049;BME280;5577;42.706;23.160;2023-04-03T12:11:28;93317.97;;;10.57;100.00
11049;BME280;5577;42.706;23.160;2023-04-03T12:14:17;93317.50;;;10.48;100.00
11049;BME280;5577;42.706;23.160;2023-04-03T12:17:02;93317.94;;;10.54;100.00
11049;BME280;5577;42.706;23.160;2023-04-03T12:19:45;93311.13;;;10.49;100.00
11049;BME280;5577;42.706;23.160;2023-04-03T12:22:30;93306.78;;;10.34;100.00
11049;BME280;5577;42.706;23.160;2023-04-03T12:25:58;93308.72;;;10.37;100.00
11049;BME280;5577;42.706;23.160;2023-04-03T12:28:39;93302.69;;;10.37;100.00
11049;BME280;5577;42.706;23.160;2023-04-03T12:31:38;93295.84;;;10.36;100.00
11049;BME280;5577;42.706;23.160;2023-04-03T12:40:48;93287.16;;;10.02;100.00
11049;BME280;5577;42.706;23.160;2023-04-03T12:43:50;93275.63;;;9.84;100.00
11049;BME280;5577;42.706;23.160;2023-04-03T12:46:45;93284.91;;;9.68;100.00
11049;BME280;5577;42.706;23.160;2023-04-03T12:52:23;93279.94;;;9.63;100.00
11049;BME280;5577;42.706;23.160;2023-04-03T12:55:17;93268.09;;;9.53;100.00
11049;BME280;5577;42.706;23.160;2023-04-03T13:01:13;93287.69;;;9.19;100.00
11049;BME280;5577;42.706;23.160;2023-04-03T13:03:58;93293.75;;;8.97;100.00
11049;BME280;5577;42.706;23.160;2023-04-03T13:06:43;93284.91;;;8.86;100.00
11049;BME280;5577;42.706;23.160;2023-04-03T13:09:29;93288.72;;;8.88;100.00
11049;BME280;5577;42.706;23.160;2023-04-03T13:12:15;93291.75;;;8.87;100.00
11049;BME280;5577;42.706;23.160;2023-04-03T13:15:02;93282.94;;;8.79;100.00
11049;BME280;5577;42.706;23.160;2023-04-03T13:17:48;93304.81;;;8.80;100.00
11049;BME280;5577;42.706;23.160;2023-04-03T13:20:35;93285.59;;;8.79;100.00
11049;BME280;5577;42.706;23.160;2023-04-03T13:23:20;93285.97;;;8.81;100.00
11049;BME280;5577;42.706;23.160;2023-04-03T13:26:05;93242.47;;;8.46;100.00
11049;BME280;5577;42.706;23.160;2023-04-03T13:28:50;93281.91;;;8.61;100.00
11049;BME280;5577;42.706;23.160;2023-04-03T13:31:36;93281.09;;;8.57;100.00
11049;BME280;5577;42.706;23.160;2023-04-03T13:34:24;93282.09;;;8.49;100.00
11049;BME280;5577;42.706;23.160;2023-04-03T13:37:28;93237.88;;;8.20;100.00
11049;BME280;5577;42.706;23.160;2023-04-03T13:40:13;93281.22;;;8.42;100.00
11049;BME280;5577;42.706;23.160;2023-04-03T13:43:16;93271.66;;;8.34;100.00
11049;BME280;5577;42.706;23.160;2023-04-03T13:46:27;93272.78;;;8.33;100.00
11049;BME280;5577;42.706;23.160;2023-04-03T13:52:27;93284.78;;;8.30;100.00
11049;BME280;5577;42.706;23.160;2023-04-03T14:01:05;93271.84;;;8.22;100.00
11049;BME280;5577;42.706;23.160;2023-04-03T14:04:01;93280.38;;;8.15;100.00
11049;BME280;5577;42.706;23.160;2023-04-03T14:06:46;93229.91;;;7.94;100.00
11049;BME280;5577;42.706;23.160;2023-04-03T14:09:30;93271.34;;;8.16;100.00
11049;BME280;5577;42.706;23.160;2023-04-03T14:12:19;93266.34;;;8.11;100.00
11049;BME280;5577;42.706;23.160;2023-04-03T14:15:17;93244.53;;;7.92;100.00
11049;BME280;5577;42.706;23.160;2023-04-03T14:18:01;93265.75;;;7.99;100.00
11049;BME280;5577;42.706;23.160;2023-04-03T14:20:46;93265.03;;;8.02;100.00
11049;BME280;5577;42.706;23.160;2023-04-03T14:23:30;93264.44;;;8.08;100.00
11049;BME280;5577;42.706;23.160;2023-04-03T14:26:17;93266.28;;;8.08;100.00
11049;BME280;5577;42.706;23.160;2023-04-03T14:29:02;93257.50;;;8.00;100.00
11049;BME280;5577;42.706;23.160;2023-04-03T14:31:47;93265.81;;;8.02;100.00
11049;BME280;5577;42.706;23.160;2023-04-03T14:34:31;93258.59;;;7.99;100.00
11049;BME280;5577;42.706;23.160;2023-04-03T14:37:22;93259.31;;;7.96;100.00
11049;BME280;5577;42.706;23.160;2023-04-03T14:40:08;93259.78;;;8.02;100.00
11049;BME280;5577;42.706;23.160;2023-04-03T14:42:53;93260.13;;;8.00;100.00
11049;BME280;5577;42.706;23.160;2023-04-03T14:45:39;93267.69;;;8.02;100.00
11049;BME280;5577;42.706;23.160;2023-04-03T14:48:25;93271.13;;;8.06;100.00
11049;BME280;5577;42.706;23.160;2023-04-03T14:51:12;93264.69;;;8.03;100.00
11049;BME280;5577;42.706;23.160;2023-04-03T14:53:56;93268.72;;;7.97;100.00
11049;BME280;5577;42.706;23.160;2023-04-03T14:56:41;93250.66;;;7.96;100.00
11049;BME280;5577;42.706;23.160;2023-04-03T14:59:26;93255.06;;;7.92;100.00
11049;BME280;5577;42.706;23.160;2023-04-03T15:02:34;93248.38;;;7.94;100.00
11049;BME280;5577;42.706;23.160;2023-04-03T15:05:19;93244.88;;;7.90;100.00
11049;BME280;5577;42.706;23.160;2023-04-03T15:08:03;93241.03;;;7.84;100.00
11049;BME280;5577;42.706;23.160;2023-04-03T15:10:47;93240.13;;;7.77;100.00
11049;BME280;5577;42.706;23.160;2023-04-03T15:13:32;93234.00;;;7.69;100.00
11049;BME280;5577;42.706;23.160;2023-04-03T15:16:18;93237.38;;;7.70;100.00
11049;BME280;5577;42.706;23.160;2023-04-03T15:19:03;93228.25;;;7.86;100.00
11049;BME280;5577;42.706;23.160;2023-04-03T15:21:47;93230.88;;;7.86;100.00
11049;BME280;5577;42.706;23.160;2023-04-03T15:24:31;93226.38;;;7.87;100.00
11049;BME280;5577;42.706;23.160;2023-04-03T15:27:15;93224.31;;;7.77;100.00
11049;BME280;5577;42.706;23.160;2023-04-03T15:29:59;93224.88;;;7.86;100.00
11049;BME280;5577;42.706;23.160;2023-04-03T15:32:43;93183.88;;;7.66;100.00
11049;BME280;5577;42.706;23.160;2023-04-03T15:35:27;93214.72;;;7.88;100.00
11049;BME280;5577;42.706;23.160;2023-04-03T15:38:11;64821.28;;;-141.11;100.00
11049;BME280;5577;42.706;23.160;2023-04-03T15:40:57;64821.28;;;-141.11;100.00
11049;BME280;5577;42.706;23.160;2023-04-03T15:43:42;64821.28;;;-141.11;100.00
11049;BME280;5577;42.706;23.160;2023-04-03T15:46:26;64821.28;;;-141.11;100.00
11049;BME280;5577;42.706;23.160;2023-04-03T15:49:10;64821.28;;;-141.11;100.00